sensor_id;sensor_type;location;lat;lon;timestamp;P1;durP1;ratioP1;P2;durP2;ratioP2
31091;SDS011;67728;53.122;12.776;2023-03-17T00:01:26;281.87;;;53.27;;
31091;SDS011;67728;53.122;12.776;2023-03-17T00:02:58;281.03;;;52.63;;
31091;SDS011;67728;53.122;12.776;2023-03-17T00:04:30;282.27;;;53.07;;
31091;SDS011;67728;53.122;12.776;2023-03-17T00:06:02;281.63;;;52.77;;
31091;SDS011;67728;53.122;12.776;2023-03-17T00:07:35;283.30;;;53.10;;
31091;SDS011;67728;53.122;12.776;2023-03-17T00:09:09;281.97;;;52.80;;
31091;SDS011;67728;53.122;12.776;2023-03-17T00:10:43;284.70;;;53.30;;
31091;SDS011;67728;53.122;12.776;2023-03-17T00:12:15;283.63;;;53.47;;
31091;SDS011;67728;53.122;12.776;2023-03-17T00:13:50;282.17;;;52.87;;
31091;SDS011;67728;53.122;12.776;2023-03-17T00:15:24;282.70;;;52.93;;
31091;SDS011;67728;53.122;12.776;2023-03-17T00:16:56;281.20;;;52.67;;
31091;SDS011;67728;53.122;12.776;2023-03-17T00:18:28;281.23;;;52.57;;
31091;SDS011;67728;53.122;12.776;2023-03-17T00:20:00;284.60;;;53.27;;
31091;SDS011;67728;53.122;12.776;2023-03-17T00:21:33;282.13;;;52.87;;
31091;SDS011;67728;53.122;12.776;2023-03-17T00:23:07;281.37;;;52.27;;
31091;SDS011;67728;53.122;12.776;2023-03-17T00:24:44;281.97;;;52.47;;
31091;SDS011;67728;53.122;12.776;2023-03-17T00:26:16;282.07;;;52.57;;
31091;SDS011;67728;53.122;12.776;2023-03-17T00:27:48;283.10;;;52.93;;
31091;SDS011;67728;53.122;12.776;2023-03-17T00:29:22;282.73;;;52.57;;
31091;SDS011;67728;53.122;12.776;2023-03-17T00:30:54;281.20;;;52.57;;
31091;SDS011;67728;53.122;12.776;2023-03-17T00:32:29;281.43;;;52.37;;
31091;SDS011;67728;53.122;12.776;2023-03-17T00:34:01;282.37;;;52.37;;
31091;SDS011;67728;53.122;12.776;2023-03-17T00:35:32;282.13;;;52.37;;
31091;SDS011;67728;53.122;12.776;2023-03-17T00:37:04;284.00;;;52.97;;
31091;SDS011;67728;53.122;12.776;2023-03-17T00:38:38;282.10;;;52.67;;
31091;SDS011;67728;53.122;12.776;2023-03-17T00:40:13;282.17;;;52.73;;
31091;SDS011;67728;53.122;12.776;2023-03-17T00:41:46;281.57;;;52.33;;
31091;SDS011;67728;53.122;12.776;2023-03-17T00:43:18;285.37;;;53.10;;
31091;SDS011;67728;53.122;12.776;2023-03-17T00:44:51;285.80;;;53.27;;
31091;SDS011;67728;53.122;12.776;2023-03-17T00:46:24;283.07;;;52.63;;
31091;SDS011;67728;53.122;12.776;2023-03-17T00:47:58;280.97;;;52.27;;
31091;SDS011;67728;53.122;12.776;2023-03-17T00:49:29;282.43;;;52.80;;
31091;SDS011;67728;53.122;12.776;2023-03-17T00:51:01;282.73;;;53.03;;
31091;SDS011;67728;53.122;12.776;2023-03-17T00:52:34;283.30;;;52.80;;
31091;SDS011;67728;53.122;12.776;2023-03-17T00:54:05;283.40;;;52.83;;
31091;SDS011;67728;53.122;12.776;2023-03-17T00:55:37;282.50;;;52.53;;
31091;SDS011;67728;53.122;12.776;2023-03-17T00:57:08;284.37;;;53.10;;
31091;SDS011;67728;53.122;12.776;2023-03-17T00:58:41;281.97;;;52.60;;
31091;SDS011;67728;53.122;12.776;2023-03-17T01:00:20;285.27;;;53.33;;
31091;SDS011;67728;53.122;12.776;2023-03-17T01:01:53;281.97;;;52.47;;
31091;SDS011;67728;53.122;12.776;2023-03-17T01:03:24;281.37;;;52.37;;
31091;SDS011;67728;53.122;12.776;2023-03-17T01:04:57;285.83;;;53.40;;
31091;SDS011;67728;53.122;12.776;2023-03-17T01:06:29;283.00;;;52.97;;
31091;SDS011;67728;53.122;12.776;2023-03-17T01:08:01;282.57;;;52.73;;
31091;SDS011;67728;53.122;12.776;2023-03-17T01:09:33;282.80;;;52.70;;
31091;SDS011;67728;53.122;12.776;2023-03-17T01:11:04;281.27;;;52.30;;
31091;SDS011;67728;53.122;12.776;2023-03-17T01:12:36;284.57;;;52.97;;
31091;SDS011;67728;53.122;12.776;2023-03-17T01:14:07;285.70;;;53.40;;
31091;SDS011;67728;53.122;12.776;2023-03-17T01:15:42;283.57;;;52.80;;
31091;SDS011;67728;53.122;12.776;2023-03-17T01:17:16;282.87;;;52.70;;
31091;SDS011;67728;53.122;12.776;2023-03-17T01:18:48;283.00;;;52.80;;
31091;SDS011;67728;53.122;12.776;2023-03-17T01:20:21;282.87;;;52.87;;
31091;SDS011;67728;53.122;12.776;2023-03-17T01:21:53;283.80;;;53.10;;
31091;SDS011;67728;53.122;12.776;2023-03-17T01:23:24;281.00;;;52.13;;
31091;SDS011;67728;53.122;12.776;2023-03-17T01:24:56;282.10;;;52.60;;
31091;SDS011;67728;53.122;12.776;2023-03-17T01:26:28;282.10;;;52.57;;
31091;SDS011;67728;53.122;12.776;2023-03-17T01:27:59;281.73;;;52.67;;
31091;SDS011;67728;53.122;12.776;2023-03-17T01:29:31;281.27;;;52.50;;
31091;SDS011;67728;53.122;12.776;2023-03-17T01:31:06;282.17;;;52.67;;
31091;SDS011;67728;53.122;12.776;2023-03-17T01:32:38;283.13;;;52.67;;
31091;SDS011;67728;53.122;12.776;2023-03-17T01:34:10;281.37;;;52.33;;
31091;SDS011;67728;53.122;12.776;2023-03-17T01:35:42;281.00;;;52.20;;
31091;SDS011;67728;53.122;12.776;2023-03-17T01:37:14;286.23;;;53.27;;
31091;SDS011;67728;53.122;12.776;2023-03-17T01:38:46;282.90;;;52.67;;
31091;SDS011;67728;53.122;12.776;2023-03-17T01:40:20;286.77;;;53.73;;
31091;SDS011;67728;53.122;12.776;2023-03-17T01:41:57;283.60;;;53.07;;
31091;SDS011;67728;53.122;12.776;2023-03-17T01:43:30;281.07;;;52.47;;
31091;SDS011;67728;53.122;12.776;2023-03-17T01:45:03;284.57;;;53.40;;
31091;SDS011;67728;53.122;12.776;2023-03-17T01:46:38;282.77;;;53.17;;
31091;SDS011;67728;53.122;12.776;2023-03-17T01:48:09;283.87;;;53.27;;
31091;SDS011;67728;53.122;12.776;2023-03-17T01:49:41;282.73;;;53.00;;
31091;SDS011;67728;53.122;12.776;2023-03-17T01:51:15;285.23;;;53.13;;
31091;SDS011;67728;53.122;12.776;2023-03-17T01:52:48;281.57;;;52.47;;
31091;SDS011;67728;53.122;12.776;2023-03-17T01:54:21;283.10;;;52.77;;
31091;SDS011;67728;53.122;12.776;2023-03-17T01:55:56;281.93;;;52.43;;
31091;SDS011;67728;53.122;12.776;2023-03-17T01:57:28;280.83;;;52.30;;
31091;SDS011;67728;53.122;12.776;2023-03-17T01:59:04;282.30;;;52.37;;
31091;SDS011;67728;53.122;12.776;2023-03-17T02:00:37;284.77;;;52.83;;
31091;SDS011;67728;53.122;12.776;2023-03-17T02:02:11;283.40;;;52.77;;
31091;SDS011;67728;53.122;12.776;2023-03-17T02:03:47;282.50;;;52.53;;
31091;SDS011;67728;53.122;12.776;2023-03-17T02:05:19;284.13;;;52.60;;
31091;SDS011;67728;53.122;12.776;2023-03-17T02:06:53;283.77;;;52.90;;
31091;SDS011;67728;53.122;12.776;2023-03-17T02:08:25;284.70;;;52.47;;
31091;SDS011;67728;53.122;12.776;2023-03-17T02:09:58;283.87;;;52.67;;
31091;SDS011;67728;53.122;12.776;2023-03-17T02:11:30;284.03;;;52.73;;
31091;SDS011;67728;53.122;12.776;2023-03-17T02:13:02;284.07;;;53.10;;
31091;SDS011;67728;53.122;12.776;2023-03-17T02:14:34;284.17;;;53.07;;
31091;SDS011;67728;53.122;12.776;2023-03-17T02:16:06;285.27;;;53.07;;
31091;SDS011;67728;53.122;12.776;2023-03-17T02:17:45;283.43;;;52.83;;
31091;SDS011;67728;53.122;12.776;2023-03-17T02:19:17;284.13;;;53.03;;
31091;SDS011;67728;53.122;12.776;2023-03-17T02:23:17;283.10;;;52.70;;
31091;SDS011;67728;53.122;12.776;2023-03-17T02:24:53;374.63;;;74.07;;
31091;SDS011;67728;53.122;12.776;2023-03-17T02:26:28;283.80;;;53.30;;
31091;SDS011;67728;53.122;12.776;2023-03-17T02:28:04;284.20;;;52.60;;
31091;SDS011;67728;53.122;12.776;2023-03-17T02:29:39;283.90;;;53.23;;
31091;SDS011;67728;53.122;12.776;2023-03-17T02:31:15;285.27;;;53.13;;
31091;SDS011;67728;53.122;12.776;2023-03-17T02:32:46;282.03;;;52.47;;
31091;SDS011;67728;53.122;12.776;2023-03-17T02:34:17;283.03;;;52.60;;
31091;SDS011;67728;53.122;12.776;2023-03-17T02:35:48;284.67;;;52.97;;
31091;SDS011;67728;53.122;12.776;2023-03-17T02:37:20;285.03;;;53.00;;
31091;SDS011;67728;53.122;12.776;2023-03-17T02:38:53;282.93;;;52.47;;
31091;SDS011;67728;53.122;12.776;2023-03-17T02:40:24;285.63;;;52.97;;
31091;SDS011;67728;53.122;12.776;2023-03-17T02:41:56;285.27;;;53.03;;
31091;SDS011;67728;53.122;12.776;2023-03-17T02:43:27;284.63;;;53.00;;
31091;SDS011;67728;53.122;12.776;2023-03-17T02:44:58;284.83;;;53.00;;
31091;SDS011;67728;53.122;12.776;2023-03-17T02:46:30;283.17;;;52.60;;
31091;SDS011;67728;53.122;12.776;2023-03-17T02:48:01;283.97;;;52.83;;
31091;SDS011;67728;53.122;12.776;2023-03-17T02:49:33;282.70;;;52.60;;
31091;SDS011;67728;53.122;12.776;2023-03-17T02:51:06;284.57;;;52.73;;
31091;SDS011;67728;53.122;12.776;2023-03-17T02:52:36;288.43;;;53.70;;
31091;SDS011;67728;53.122;12.776;2023-03-17T02:54:09;284.10;;;52.73;;
31091;SDS011;67728;53.122;12.776;2023-03-17T02:55:41;284.80;;;52.93;;
31091;SDS011;67728;53.122;12.776;2023-03-17T02:57:12;284.03;;;52.60;;
31091;SDS011;67728;53.122;12.776;2023-03-17T02:58:44;283.10;;;52.63;;
31091;SDS011;67728;53.122;12.776;2023-03-17T03:00:16;284.57;;;52.60;;
31091;SDS011;67728;53.122;12.776;2023-03-17T03:01:48;285.93;;;53.50;;
31091;SDS011;67728;53.122;12.776;2023-03-17T03:03:20;283.87;;;52.93;;
31091;SDS011;67728;53.122;12.776;2023-03-17T03:04:51;283.33;;;52.83;;
31091;SDS011;67728;53.122;12.776;2023-03-17T03:06:23;283.00;;;52.93;;
31091;SDS011;67728;53.122;12.776;2023-03-17T03:07:54;282.30;;;52.67;;
31091;SDS011;67728;53.122;12.776;2023-03-17T03:09:26;285.47;;;53.13;;
31091;SDS011;67728;53.122;12.776;2023-03-17T03:10:58;282.23;;;52.70;;
31091;SDS011;67728;53.122;12.776;2023-03-17T03:12:31;283.17;;;52.90;;
31091;SDS011;67728;53.122;12.776;2023-03-17T03:14:03;282.03;;;52.83;;
31091;SDS011;67728;53.122;12.776;2023-03-17T03:15:35;281.73;;;52.63;;
31091;SDS011;67728;53.122;12.776;2023-03-17T03:17:06;281.70;;;52.30;;
31091;SDS011;67728;53.122;12.776;2023-03-17T03:18:38;282.70;;;52.77;;
31091;SDS011;67728;53.122;12.776;2023-03-17T03:20:10;280.60;;;52.13;;
31091;SDS011;67728;53.122;12.776;2023-03-17T03:21:41;281.90;;;52.37;;
31091;SDS011;67728;53.122;12.776;2023-03-17T03:23:13;281.53;;;52.23;;
31091;SDS011;67728;53.122;12.776;2023-03-17T03:24:47;281.13;;;52.23;;
31091;SDS011;67728;53.122;12.776;2023-03-17T03:26:19;281.20;;;52.10;;
31091;SDS011;67728;53.122;12.776;2023-03-17T03:27:49;283.63;;;52.40;;
31091;SDS011;67728;53.122;12.776;2023-03-17T03:29:21;282.10;;;52.07;;
31091;SDS011;67728;53.122;12.776;2023-03-17T03:30:53;282.60;;;52.50;;
31091;SDS011;67728;53.122;12.776;2023-03-17T03:32:24;283.27;;;52.60;;
31091;SDS011;67728;53.122;12.776;2023-03-17T03:33:56;281.70;;;52.53;;
31091;SDS011;67728;53.122;12.776;2023-03-17T03:35:28;282.83;;;52.80;;
31091;SDS011;67728;53.122;12.776;2023-03-17T03:37:00;281.53;;;52.60;;
31091;SDS011;67728;53.122;12.776;2023-03-17T03:38:32;282.77;;;52.50;;
31091;SDS011;67728;53.122;12.776;2023-03-17T03:40:05;281.30;;;52.63;;
31091;SDS011;67728;53.122;12.776;2023-03-17T03:41:38;284.47;;;53.00;;
31091;SDS011;67728;53.122;12.776;2023-03-17T03:43:10;282.80;;;52.53;;
31091;SDS011;67728;53.122;12.776;2023-03-17T03:44:42;282.10;;;52.57;;
31091;SDS011;67728;53.122;12.776;2023-03-17T03:46:12;287.23;;;53.37;;
31091;SDS011;67728;53.122;12.776;2023-03-17T03:47:44;284.60;;;53.20;;
31091;SDS011;67728;53.122;12.776;2023-03-17T03:49:15;283.37;;;52.97;;
31091;SDS011;67728;53.122;12.776;2023-03-17T03:50:47;281.87;;;52.40;;
31091;SDS011;67728;53.122;12.776;2023-03-17T03:52:18;285.03;;;53.23;;
31091;SDS011;67728;53.122;12.776;2023-03-17T03:53:50;282.10;;;52.77;;
31091;SDS011;67728;53.122;12.776;2023-03-17T03:55:23;281.80;;;52.77;;
31091;SDS011;67728;53.122;12.776;2023-03-17T03:56:54;282.23;;;52.70;;
31091;SDS011;67728;53.122;12.776;2023-03-17T03:58:26;282.67;;;52.73;;
31091;SDS011;67728;53.122;12.776;2023-03-17T03:59:57;281.43;;;52.70;;
31091;SDS011;67728;53.122;12.776;2023-03-17T04:01:29;281.27;;;52.57;;
31091;SDS011;67728;53.122;12.776;2023-03-17T04:03:01;282.67;;;52.57;;
31091;SDS011;67728;53.122;12.776;2023-03-17T04:04:32;281.30;;;52.33;;
31091;SDS011;67728;53.122;12.776;2023-03-17T04:06:04;285.20;;;53.33;;
31091;SDS011;67728;53.122;12.776;2023-03-17T04:07:36;281.63;;;52.70;;
31091;SDS011;67728;53.122;12.776;2023-03-17T04:09:08;282.60;;;52.70;;
31091;SDS011;67728;53.122;12.776;2023-03-17T04:10:41;282.30;;;52.50;;
31091;SDS011;67728;53.122;12.776;2023-03-17T04:12:13;281.40;;;52.17;;
31091;SDS011;67728;53.122;12.776;2023-03-17T04:13:45;283.90;;;52.53;;
31091;SDS011;67728;53.122;12.776;2023-03-17T04:15:17;283.87;;;52.67;;
31091;SDS011;67728;53.122;12.776;2023-03-17T04:16:50;282.63;;;52.80;;
31091;SDS011;67728;53.122;12.776;2023-03-17T04:18:20;282.93;;;52.67;;
31091;SDS011;67728;53.122;12.776;2023-03-17T04:19:52;281.37;;;52.40;;
31091;SDS011;67728;53.122;12.776;2023-03-17T04:21:23;282.37;;;52.40;;
31091;SDS011;67728;53.122;12.776;2023-03-17T04:22:55;281.67;;;52.50;;
31091;SDS011;67728;53.122;12.776;2023-03-17T04:24:27;280.23;;;52.30;;
31091;SDS011;67728;53.122;12.776;2023-03-17T04:26:00;281.90;;;52.70;;
31091;SDS011;67728;53.122;12.776;2023-03-17T04:27:31;284.13;;;53.07;;
31091;SDS011;67728;53.122;12.776;2023-03-17T04:29:03;283.97;;;53.00;;
31091;SDS011;67728;53.122;12.776;2023-03-17T04:30:37;280.80;;;52.30;;
31091;SDS011;67728;53.122;12.776;2023-03-17T04:32:08;282.20;;;52.70;;
31091;SDS011;67728;53.122;12.776;2023-03-17T04:33:42;283.67;;;53.10;;
31091;SDS011;67728;53.122;12.776;2023-03-17T04:35:13;286.47;;;53.27;;
31091;SDS011;67728;53.122;12.776;2023-03-17T04:36:46;282.17;;;52.40;;
31091;SDS011;67728;53.122;12.776;2023-03-17T04:38:18;281.47;;;52.20;;
31091;SDS011;67728;53.122;12.776;2023-03-17T04:39:50;282.07;;;52.20;;
31091;SDS011;67728;53.122;12.776;2023-03-17T04:41:23;284.50;;;52.80;;
31091;SDS011;67728;53.122;12.776;2023-03-17T04:42:55;284.20;;;52.87;;
31091;SDS011;67728;53.122;12.776;2023-03-17T04:44:26;286.17;;;53.23;;
31091;SDS011;67728;53.122;12.776;2023-03-17T04:45:58;282.37;;;52.80;;
31091;SDS011;67728;53.122;12.776;2023-03-17T04:47:30;283.57;;;52.67;;
31091;SDS011;67728;53.122;12.776;2023-03-17T04:49:01;282.47;;;52.13;;
31091;SDS011;67728;53.122;12.776;2023-03-17T04:50:33;286.17;;;52.60;;
31091;SDS011;67728;53.122;12.776;2023-03-17T04:52:04;284.87;;;52.50;;
31091;SDS011;67728;53.122;12.776;2023-03-17T04:53:36;283.90;;;52.30;;
31091;SDS011;67728;53.122;12.776;2023-03-17T04:55:07;285.67;;;52.63;;
31091;SDS011;67728;53.122;12.776;2023-03-17T04:56:42;283.23;;;52.17;;
31091;SDS011;67728;53.122;12.776;2023-03-17T04:58:13;282.90;;;52.13;;
31091;SDS011;67728;53.122;12.776;2023-03-17T04:59:44;282.00;;;51.80;;
31091;SDS011;67728;53.122;12.776;2023-03-17T05:01:16;283.83;;;52.17;;
31091;SDS011;67728;53.122;12.776;2023-03-17T05:02:47;282.27;;;52.07;;
31091;SDS011;67728;53.122;12.776;2023-03-17T05:04:18;284.27;;;52.37;;
31091;SDS011;67728;53.122;12.776;2023-03-17T05:05:50;283.60;;;52.87;;
31091;SDS011;67728;53.122;12.776;2023-03-17T05:07:21;284.73;;;53.17;;
31091;SDS011;67728;53.122;12.776;2023-03-17T05:08:52;283.30;;;52.73;;
31091;SDS011;67728;53.122;12.776;2023-03-17T05:10:24;284.17;;;52.83;;
31091;SDS011;67728;53.122;12.776;2023-03-17T05:11:57;283.30;;;53.63;;
31091;SDS011;67728;53.122;12.776;2023-03-17T05:13:28;285.73;;;54.20;;
31091;SDS011;67728;53.122;12.776;2023-03-17T05:14:59;285.03;;;53.90;;
31091;SDS011;67728;53.122;12.776;2023-03-17T05:16:31;286.67;;;54.20;;
31091;SDS011;67728;53.122;12.776;2023-03-17T05:18:02;284.80;;;53.90;;
31091;SDS011;67728;53.122;12.776;2023-03-17T05:19:33;286.90;;;53.97;;
31091;SDS011;67728;53.122;12.776;2023-03-17T05:21:05;284.53;;;53.70;;
31091;SDS011;67728;53.122;12.776;2023-03-17T05:22:36;288.40;;;54.80;;
31091;SDS011;67728;53.122;12.776;2023-03-17T05:24:08;285.63;;;54.37;;
31091;SDS011;67728;53.122;12.776;2023-03-17T05:25:40;287.47;;;54.10;;
31091;SDS011;67728;53.122;12.776;2023-03-17T05:27:13;285.57;;;53.80;;
31091;SDS011;67728;53.122;12.776;2023-03-17T05:28:44;285.10;;;53.47;;
31091;SDS011;67728;53.122;12.776;2023-03-17T05:30:17;286.37;;;53.70;;
31091;SDS011;67728;53.122;12.776;2023-03-17T05:31:49;284.47;;;53.77;;
31091;SDS011;67728;53.122;12.776;2023-03-17T05:33:21;285.40;;;53.93;;
31091;SDS011;67728;53.122;12.776;2023-03-17T05:34:52;293.47;;;55.33;;
31091;SDS011;67728;53.122;12.776;2023-03-17T05:36:23;286.03;;;54.10;;
31091;SDS011;67728;53.122;12.776;2023-03-17T05:37:55;283.90;;;52.93;;
31091;SDS011;67728;53.122;12.776;2023-03-17T05:39:27;293.10;;;54.53;;
31091;SDS011;67728;53.122;12.776;2023-03-17T05:40:58;284.87;;;53.17;;
31091;SDS011;67728;53.122;12.776;2023-03-17T05:42:33;296.20;;;55.83;;
31091;SDS011;67728;53.122;12.776;2023-03-17T05:44:03;284.77;;;53.30;;
31091;SDS011;67728;53.122;12.776;2023-03-17T05:45:35;287.13;;;53.43;;
31091;SDS011;67728;53.122;12.776;2023-03-17T05:47:07;293.90;;;54.70;;
31091;SDS011;67728;53.122;12.776;2023-03-17T05:48:39;290.90;;;54.07;;
31091;SDS011;67728;53.122;12.776;2023-03-17T05:50:11;286.60;;;53.50;;
31091;SDS011;67728;53.122;12.776;2023-03-17T05:51:42;286.60;;;53.60;;
31091;SDS011;67728;53.122;12.776;2023-03-17T05:53:13;287.33;;;52.97;;
31091;SDS011;67728;53.122;12.776;2023-03-17T05:54:46;287.13;;;53.77;;
31091;SDS011;67728;53.122;12.776;2023-03-17T05:56:18;288.30;;;54.53;;
31091;SDS011;67728;53.122;12.776;2023-03-17T05:57:50;290.73;;;55.03;;
31091;SDS011;67728;53.122;12.776;2023-03-17T05:59:21;288.37;;;54.67;;
31091;SDS011;67728;53.122;12.776;2023-03-17T06:00:53;288.10;;;54.37;;
31091;SDS011;67728;53.122;12.776;2023-03-17T06:02:25;289.67;;;54.63;;
31091;SDS011;67728;53.122;12.776;2023-03-17T06:03:57;290.07;;;54.60;;
31091;SDS011;67728;53.122;12.776;2023-03-17T06:05:30;286.93;;;53.90;;
31091;SDS011;67728;53.122;12.776;2023-03-17T06:07:01;287.77;;;53.77;;
31091;SDS011;67728;53.122;12.776;2023-03-17T06:08:33;287.60;;;53.97;;
31091;SDS011;67728;53.122;12.776;2023-03-17T06:10:05;288.53;;;54.10;;
31091;SDS011;67728;53.122;12.776;2023-03-17T06:11:37;289.43;;;54.13;;
31091;SDS011;67728;53.122;12.776;2023-03-17T06:13:10;288.93;;;53.97;;
31091;SDS011;67728;53.122;12.776;2023-03-17T06:14:42;288.80;;;54.40;;
31091;SDS011;67728;53.122;12.776;2023-03-17T06:16:13;291.33;;;55.17;;
31091;SDS011;67728;53.122;12.776;2023-03-17T06:17:47;295.33;;;55.57;;
31091;SDS011;67728;53.122;12.776;2023-03-17T06:19:19;289.13;;;54.60;;
31091;SDS011;67728;53.122;12.776;2023-03-17T06:20:51;294.77;;;55.10;;
31091;SDS011;67728;53.122;12.776;2023-03-17T06:22:23;289.40;;;54.33;;
31091;SDS011;67728;53.122;12.776;2023-03-17T06:23:55;289.03;;;54.20;;
31091;SDS011;67728;53.122;12.776;2023-03-17T06:25:26;288.83;;;53.90;;
31091;SDS011;67728;53.122;12.776;2023-03-17T06:26:58;289.47;;;53.67;;
31091;SDS011;67728;53.122;12.776;2023-03-17T06:28:31;291.80;;;54.83;;
31091;SDS011;67728;53.122;12.776;2023-03-17T06:30:03;287.67;;;54.77;;
31091;SDS011;67728;53.122;12.776;2023-03-17T06:31:35;289.07;;;54.87;;
31091;SDS011;67728;53.122;12.776;2023-03-17T06:33:07;286.20;;;54.70;;
31091;SDS011;67728;53.122;12.776;2023-03-17T06:34:39;287.80;;;54.93;;
31091;SDS011;67728;53.122;12.776;2023-03-17T06:36:11;287.27;;;55.00;;
31091;SDS011;67728;53.122;12.776;2023-03-17T06:37:43;289.87;;;55.17;;
31091;SDS011;67728;53.122;12.776;2023-03-17T06:39:14;286.67;;;54.63;;
31091;SDS011;67728;53.122;12.776;2023-03-17T06:40:47;286.83;;;54.80;;
31091;SDS011;67728;53.122;12.776;2023-03-17T06:42:18;288.57;;;54.83;;
31091;SDS011;67728;53.122;12.776;2023-03-17T06:43:50;293.53;;;55.87;;
31091;SDS011;67728;53.122;12.776;2023-03-17T06:45:22;287.77;;;54.70;;
31091;SDS011;67728;53.122;12.776;2023-03-17T06:46:54;288.27;;;55.90;;
31091;SDS011;67728;53.122;12.776;2023-03-17T06:48:26;289.27;;;56.23;;
31091;SDS011;67728;53.122;12.776;2023-03-17T06:49:58;287.20;;;55.83;;
31091;SDS011;67728;53.122;12.776;2023-03-17T06:51:30;285.37;;;55.13;;
31091;SDS011;67728;53.122;12.776;2023-03-17T06:53:02;287.07;;;54.67;;
31091;SDS011;67728;53.122;12.776;2023-03-17T06:54:34;286.33;;;54.57;;
31091;SDS011;67728;53.122;12.776;2023-03-17T06:56:06;290.43;;;55.17;;
31091;SDS011;67728;53.122;12.776;2023-03-17T06:57:38;292.53;;;55.47;;
31091;SDS011;67728;53.122;12.776;2023-03-17T06:59:11;307.93;;;58.63;;
31091;SDS011;67728;53.122;12.776;2023-03-17T07:00:43;288.20;;;55.20;;
31091;SDS011;67728;53.122;12.776;2023-03-17T07:02:17;293.30;;;55.97;;
31091;SDS011;67728;53.122;12.776;2023-03-17T07:03:49;288.10;;;54.93;;
31091;SDS011;67728;53.122;12.776;2023-03-17T07:05:21;287.97;;;55.00;;
31091;SDS011;67728;53.122;12.776;2023-03-17T07:06:52;288.37;;;55.10;;
31091;SDS011;67728;53.122;12.776;2023-03-17T07:08:24;289.27;;;55.33;;
31091;SDS011;67728;53.122;12.776;2023-03-17T07:09:56;287.67;;;55.07;;
31091;SDS011;67728;53.122;12.776;2023-03-17T07:11:27;289.63;;;56.03;;
31091;SDS011;67728;53.122;12.776;2023-03-17T07:12:59;289.80;;;55.97;;
31091;SDS011;67728;53.122;12.776;2023-03-17T07:14:33;288.65;;;55.75;;
31091;SDS011;67728;53.122;12.776;2023-03-17T07:16:06;289.30;;;55.90;;
31091;SDS011;67728;53.122;12.776;2023-03-17T07:17:38;289.35;;;55.70;;
31091;SDS011;67728;53.122;12.776;2023-03-17T07:19:10;289.87;;;55.57;;
31091;SDS011;67728;53.122;12.776;2023-03-17T07:20:42;289.00;;;55.87;;
31091;SDS011;67728;53.122;12.776;2023-03-17T07:22:14;293.43;;;56.20;;
31091;SDS011;67728;53.122;12.776;2023-03-17T07:23:45;290.37;;;55.93;;
31091;SDS011;67728;53.122;12.776;2023-03-17T07:25:17;292.53;;;56.10;;
31091;SDS011;67728;53.122;12.776;2023-03-17T07:26:49;289.77;;;55.53;;
31091;SDS011;67728;53.122;12.776;2023-03-17T07:28:21;291.77;;;56.03;;
31091;SDS011;67728;53.122;12.776;2023-03-17T07:29:55;290.53;;;55.57;;
31091;SDS011;67728;53.122;12.776;2023-03-17T07:31:26;292.03;;;56.30;;
31091;SDS011;67728;53.122;12.776;2023-03-17T07:32:58;294.33;;;56.17;;
31091;SDS011;67728;53.122;12.776;2023-03-17T07:34:30;292.17;;;56.63;;
31091;SDS011;67728;53.122;12.776;2023-03-17T07:36:02;291.50;;;56.30;;
31091;SDS011;67728;53.122;12.776;2023-03-17T07:37:36;291.93;;;57.03;;
31091;SDS011;67728;53.122;12.776;2023-03-17T07:39:07;292.73;;;57.20;;
31091;SDS011;67728;53.122;12.776;2023-03-17T07:40:39;309.67;;;59.63;;
31091;SDS011;67728;53.122;12.776;2023-03-17T07:42:11;291.43;;;55.73;;
31091;SDS011;67728;53.122;12.776;2023-03-17T07:43:44;293.33;;;56.23;;
31091;SDS011;67728;53.122;12.776;2023-03-17T07:45:17;295.20;;;56.43;;
31091;SDS011;67728;53.122;12.776;2023-03-17T07:46:49;292.07;;;56.23;;
31091;SDS011;67728;53.122;12.776;2023-03-17T07:48:21;295.40;;;56.70;;
31091;SDS011;67728;53.122;12.776;2023-03-17T07:49:53;291.80;;;56.17;;
31091;SDS011;67728;53.122;12.776;2023-03-17T07:51:25;292.53;;;56.13;;
31091;SDS011;67728;53.122;12.776;2023-03-17T07:52:57;294.27;;;57.07;;
31091;SDS011;67728;53.122;12.776;2023-03-17T07:54:28;296.40;;;57.50;;
31091;SDS011;67728;53.122;12.776;2023-03-17T07:56:00;307.83;;;59.17;;
31091;SDS011;67728;53.122;12.776;2023-03-17T07:57:32;294.80;;;57.00;;
31091;SDS011;67728;53.122;12.776;2023-03-17T07:59:04;293.67;;;56.80;;
31091;SDS011;67728;53.122;12.776;2023-03-17T08:00:38;295.67;;;57.25;;
31091;SDS011;67728;53.122;12.776;2023-03-17T08:02:11;295.97;;;58.60;;
31091;SDS011;67728;53.122;12.776;2023-03-17T08:03:44;295.47;;;58.10;;
31091;SDS011;67728;53.122;12.776;2023-03-17T08:05:17;300.17;;;58.83;;
31091;SDS011;67728;53.122;12.776;2023-03-17T08:06:48;294.48;;;57.50;;
31091;SDS011;67728;53.122;12.776;2023-03-17T08:08:20;303.13;;;59.65;;
31091;SDS011;67728;53.122;12.776;2023-03-17T08:09:52;295.38;;;57.72;;
31091;SDS011;67728;53.122;12.776;2023-03-17T08:11:23;297.90;;;59.07;;
31091;SDS011;67728;53.122;12.776;2023-03-17T08:12:55;295.83;;;57.20;;
31091;SDS011;67728;53.122;12.776;2023-03-17T08:14:27;295.50;;;56.33;;
31091;SDS011;67728;53.122;12.776;2023-03-17T08:16:00;295.70;;;56.78;;
31091;SDS011;67728;53.122;12.776;2023-03-17T08:17:32;298.27;;;57.13;;
31091;SDS011;67728;53.122;12.776;2023-03-17T08:19:05;294.17;;;56.33;;
31091;SDS011;67728;53.122;12.776;2023-03-17T08:20:37;294.53;;;55.80;;
31091;SDS011;67728;53.122;12.776;2023-03-17T08:22:09;296.87;;;57.00;;
31091;SDS011;67728;53.122;12.776;2023-03-17T08:23:41;296.73;;;56.73;;
31091;SDS011;67728;53.122;12.776;2023-03-17T08:25:13;296.02;;;56.58;;
31091;SDS011;67728;53.122;12.776;2023-03-17T08:26:46;296.43;;;56.93;;
31091;SDS011;67728;53.122;12.776;2023-03-17T08:28:18;296.52;;;56.80;;
31091;SDS011;67728;53.122;12.776;2023-03-17T08:29:50;298.38;;;57.35;;
31091;SDS011;67728;53.122;12.776;2023-03-17T08:31:23;298.77;;;58.70;;
31091;SDS011;67728;53.122;12.776;2023-03-17T08:32:54;295.92;;;56.70;;
31091;SDS011;67728;53.122;12.776;2023-03-17T08:34:26;297.15;;;56.78;;
31091;SDS011;67728;53.122;12.776;2023-03-17T08:35:58;307.77;;;60.58;;
31091;SDS011;67728;53.122;12.776;2023-03-17T08:37:29;296.80;;;57.33;;
31091;SDS011;67728;53.122;12.776;2023-03-17T08:39:01;299.77;;;58.67;;
31091;SDS011;67728;53.122;12.776;2023-03-17T08:40:33;297.75;;;57.72;;
31091;SDS011;67728;53.122;12.776;2023-03-17T08:42:05;300.80;;;58.97;;
31091;SDS011;67728;53.122;12.776;2023-03-17T08:43:37;320.08;;;68.47;;
31091;SDS011;67728;53.122;12.776;2023-03-17T08:45:10;340.67;;;78.20;;
31091;SDS011;67728;53.122;12.776;2023-03-17T08:46:46;308.77;;;64.73;;